Terminal Aerodrome Forecast
Issued by NWS

Home | Current Version | Previous Version | Text Only | Print | Product List | Glossary On
Versions: 1 2 3 4 5 6 7 8 9 10 11 12 13 14 15 16
000
FTUS46 KLOX 012353
TAFWJF
TAF
KWJF 012353Z 0200/0224 22015G23KT P6SM FEW090 SCT250
     FM020400 25012KT P6SM FEW250
     FM020900 25008KT P6SM SKC
     FM022200 23015G25KT P6SM SCT250=

USA.gov is the U.S. government's official web portal to all federal, state and local government web resources and services.